createdAt,value
2023-02-14T00:00:01.074Z,22.2
2023-02-14T00:05:01.569Z,22.2
2023-02-14T00:10:01.143Z,22.2
2023-02-14T00:15:01.555Z,22.2
2023-02-14T00:20:01.112Z,22.2
2023-02-14T00:25:01.473Z,22.2
2023-02-14T00:30:01.185Z,22.2
2023-02-14T00:35:01.327Z,22.2
2023-02-14T00:40:01.799Z,22.2
2023-02-14T00:45:02.121Z,22.2
2023-02-14T00:50:03.676Z,22.2
2023-02-14T00:55:01.471Z,22.2
2023-02-14T01:00:01.596Z,22.2
2023-02-14T01:05:00.977Z,22.2
2023-02-14T01:10:02.210Z,22.1
2023-02-14T01:15:01.066Z,22.2
2023-02-14T01:20:01.554Z,22.1
2023-02-14T01:25:01.108Z,22.1
2023-02-14T01:30:02.425Z,22.1
2023-02-14T01:35:01.495Z,22.1
2023-02-14T01:40:02.097Z,22.1
2023-02-14T01:45:01.954Z,22.1
2023-02-14T01:50:01.616Z,22.1
2023-02-14T01:55:00.536Z,22.0
2023-02-14T02:00:01.856Z,22.0
2023-02-14T02:05:01.468Z,22.0
2023-02-14T02:10:04.275Z,22.0
2023-02-14T02:15:01.362Z,22.0
2023-02-14T02:20:01.039Z,22.0
2023-02-14T02:25:01.749Z,22.0
2023-02-14T02:30:01.170Z,22.0
2023-02-14T02:35:01.991Z,22.0
2023-02-14T02:40:01.150Z,22.0
2023-02-14T02:45:01.505Z,22.0
2023-02-14T02:50:00.471Z,22.0
2023-02-14T02:55:01.069Z,22.0
2023-02-14T03:00:01.973Z,22.0
2023-02-14T03:05:01.418Z,22.0
2023-02-14T03:10:02.043Z,22.0
2023-02-14T03:15:01.114Z,22.0
2023-02-14T03:20:01.291Z,22.0
2023-02-14T03:25:00.768Z,22.0
2023-02-14T03:30:01.664Z,22.0
2023-02-14T03:35:02.016Z,22.0
2023-02-14T03:40:00.459Z,22.0
2023-02-14T03:45:01.091Z,22.0
2023-02-14T03:50:03.628Z,22.0
2023-02-14T03:55:01.415Z,22.0
2023-02-14T04:00:02.234Z,22.0
2023-02-14T04:05:03.038Z,22.0
2023-02-14T04:10:02.138Z,22.0
2023-02-14T04:15:01.030Z,22.0
2023-02-14T04:20:01.284Z,21.9
2023-02-14T04:25:01.450Z,21.9
2023-02-14T04:30:01.081Z,22.0
2023-02-14T04:35:01.934Z,21.9
2023-02-14T04:40:02.321Z,21.9
2023-02-14T04:45:03.170Z,21.9
2023-02-14T04:50:03.532Z,22.0
2023-02-14T04:55:01.150Z,22.0
2023-02-14T05:00:01.870Z,21.9
2023-02-14T05:05:02.197Z,22.0
2023-02-14T05:10:02.023Z,21.9
2023-02-14T05:15:01.355Z,21.9
2023-02-14T05:20:01.284Z,21.9
2023-02-14T05:25:01.531Z,21.9
2023-02-14T05:30:01.210Z,21.9
2023-02-14T05:35:01.484Z,21.9
2023-02-14T05:40:01.336Z,21.9
2023-02-14T05:45:00.965Z,21.9
2023-02-14T05:50:02.015Z,21.9
2023-02-14T05:55:01.071Z,21.9
2023-02-14T06:00:01.282Z,21.9
2023-02-14T06:05:03.243Z,21.9
2023-02-14T06:10:00.920Z,21.9
2023-02-14T06:15:01.266Z,21.9
2023-02-14T06:20:01.049Z,21.9
2023-02-14T06:25:02.047Z,21.9
2023-02-14T06:30:00.604Z,21.9
2023-02-14T06:35:01.504Z,21.9
2023-02-14T06:40:01.507Z,21.9
2023-02-14T06:45:01.514Z,21.9
2023-02-14T06:50:01.332Z,21.9
2023-02-14T06:55:01.092Z,21.9
2023-02-14T07:00:02.877Z,21.9
2023-02-14T07:05:01.234Z,21.9
2023-02-14T07:10:01.149Z,21.9
2023-02-14T07:15:01.859Z,21.9
2023-02-14T07:20:01.063Z,21.9
2023-02-14T07:25:01.546Z,21.8
2023-02-14T07:30:02.223Z,21.8
2023-02-14T07:35:01.272Z,21.8
2023-02-14T07:40:01.536Z,21.9
2023-02-14T07:45:09.565Z,21.8
2023-02-14T07:50:02.236Z,21.8
2023-02-14T07:55:01.285Z,21.9
2023-02-14T08:00:01.807Z,21.9
2023-02-14T08:05:01.127Z,21.8
2023-02-14T08:10:01.610Z,21.9
2023-02-14T08:15:01.316Z,21.8
2023-02-14T08:20:00.916Z,21.8
2023-02-14T08:25:01.007Z,21.8
2023-02-14T08:30:01.206Z,21.9
2023-02-14T08:35:01.308Z,21.9
2023-02-14T08:40:01.113Z,21.9
2023-02-14T08:45:00.822Z,21.9
2023-02-14T08:50:02.089Z,21.9
2023-02-14T08:55:01.407Z,21.9
2023-02-14T09:00:01.026Z,21.9
2023-02-14T09:05:01.355Z,21.8
2023-02-14T09:10:01.554Z,21.9
2023-02-14T09:15:01.086Z,21.9
2023-02-14T09:20:02.219Z,21.9
2023-02-14T09:25:01.538Z,21.9
2023-02-14T09:30:01.117Z,21.9
2023-02-14T09:35:02.452Z,21.9
2023-02-14T09:40:01.125Z,21.9
2023-02-14T09:45:00.499Z,21.9
2023-02-14T09:50:01.265Z,21.9
2023-02-14T09:55:02.265Z,21.9
2023-02-14T10:00:03.499Z,21.9
2023-02-14T10:05:01.771Z,21.9
2023-02-14T10:10:02.055Z,21.9
2023-02-14T10:15:02.268Z,22.0
2023-02-14T10:20:02.425Z,21.9
2023-02-14T10:25:01.872Z,21.9
2023-02-14T10:30:01.408Z,21.9
2023-02-14T10:35:01.059Z,22.0
2023-02-14T10:40:01.793Z,21.9
2023-02-14T10:45:01.568Z,21.9
2023-02-14T10:55:01.354Z,22.0
2023-02-14T11:00:01.106Z,21.9
2023-02-14T11:05:02.745Z,22.0
2023-02-14T11:10:02.589Z,22.0
2023-02-14T11:15:00.999Z,21.9
2023-02-14T11:20:03.132Z,22.0
2023-02-14T11:25:03.490Z,21.9
2023-02-14T11:30:01.077Z,22.0
2023-02-14T11:35:02.199Z,22.0
2023-02-14T11:40:01.331Z,22.0
2023-02-14T11:45:01.056Z,22.0
2023-02-14T11:50:01.671Z,22.0
2023-02-14T11:55:01.359Z,22.0
2023-02-14T12:00:01.866Z,22.0
2023-02-14T12:05:03.274Z,22.0
2023-02-14T12:10:01.379Z,22.0
2023-02-14T12:15:00.527Z,22.0
2023-02-14T12:20:01.346Z,22.0
2023-02-14T12:25:02.479Z,22.0
2023-02-14T12:30:00.517Z,22.0
2023-02-14T12:35:02.178Z,22.0
2023-02-14T12:40:02.133Z,22.0
2023-02-14T12:45:01.511Z,22.0
2023-02-14T12:50:01.117Z,22.0
2023-02-14T12:55:01.634Z,22.0
2023-02-14T13:00:01.023Z,22.0
2023-02-14T13:05:01.068Z,22.0
2023-02-14T13:10:02.801Z,22.0
2023-02-14T13:15:00.534Z,22.0
2023-02-14T13:20:01.539Z,22.0
2023-02-14T13:25:00.935Z,22.0
2023-02-14T13:30:01.129Z,22.0
2023-02-14T13:35:01.869Z,22.0
2023-02-14T13:40:02.294Z,22.0
2023-02-14T13:45:01.075Z,22.0
2023-02-14T13:50:01.789Z,22.0
2023-02-14T13:55:01.880Z,22.0
2023-02-14T14:00:01.156Z,22.0
2023-02-14T14:05:01.149Z,22.0
2023-02-14T14:10:03.843Z,22.0
2023-02-14T14:15:01.315Z,22.0
2023-02-14T14:20:01.106Z,21.9
2023-02-14T14:25:01.569Z,21.9
2023-02-14T14:30:01.299Z,21.8
2023-02-14T14:35:03.466Z,21.5
2023-02-14T14:40:03.199Z,21.2
2023-02-14T14:45:03.629Z,21.1
2023-02-14T14:50:01.357Z,21.1
2023-02-14T14:55:04.049Z,21.1
2023-02-14T15:00:02.585Z,21.1
2023-02-14T15:05:02.346Z,21.1
2023-02-14T15:10:01.021Z,21.1
2023-02-14T15:15:01.693Z,21.1
2023-02-14T15:20:02.446Z,21.2
2023-02-14T15:25:02.595Z,21.2
2023-02-14T15:30:01.518Z,21.3
2023-02-14T15:35:01.029Z,21.3
2023-02-14T15:40:02.067Z,21.4
2023-02-14T15:45:01.261Z,21.4
2023-02-14T15:50:02.612Z,21.4
2023-02-14T15:55:01.119Z,21.4
2023-02-14T16:00:01.497Z,21.4
2023-02-14T16:05:01.347Z,21.5
2023-02-14T16:10:01.835Z,21.5
2023-02-14T16:15:01.152Z,21.5
2023-02-14T16:20:01.025Z,21.5
2023-02-14T16:25:01.495Z,21.6
2023-02-14T16:30:01.083Z,21.5
2023-02-14T16:35:01.649Z,21.6
2023-02-14T16:40:01.131Z,21.5
2023-02-14T16:45:03.129Z,21.6
2023-02-14T16:50:01.070Z,21.6
2023-02-14T16:55:01.906Z,21.6
2023-02-14T17:00:01.540Z,21.7
2023-02-14T17:05:02.478Z,21.6
2023-02-14T17:10:02.028Z,21.7
2023-02-14T17:15:01.646Z,21.7
2023-02-14T17:20:01.647Z,21.7
2023-02-14T17:25:01.893Z,21.8
2023-02-14T17:30:02.417Z,21.7
2023-02-14T17:35:02.063Z,21.7
2023-02-14T17:40:01.685Z,21.8
2023-02-14T17:45:01.215Z,21.7
2023-02-14T17:50:01.377Z,21.8
2023-02-14T17:55:01.933Z,21.7
2023-02-14T18:00:00.455Z,21.8
2023-02-14T18:05:03.967Z,21.8
2023-02-14T18:10:04.013Z,21.8
2023-02-14T18:15:01.080Z,21.8
2023-02-14T18:20:01.353Z,21.8
2023-02-14T18:25:01.295Z,21.8
2023-02-14T18:30:01.647Z,21.8
2023-02-14T18:35:01.761Z,21.8
2023-02-14T18:40:02.161Z,21.8
2023-02-14T18:45:01.227Z,21.8
2023-02-14T18:50:01.914Z,21.8
2023-02-14T18:55:01.359Z,21.8
2023-02-14T19:00:02.223Z,21.8
2023-02-14T19:05:01.886Z,21.8
2023-02-14T19:10:01.507Z,21.8
2023-02-14T19:15:03.461Z,21.8
2023-02-14T19:20:02.668Z,21.8
2023-02-14T19:25:01.262Z,21.8
2023-02-14T19:30:01.784Z,21.8
2023-02-14T19:35:03.148Z,21.8
2023-02-14T19:40:01.533Z,21.9
2023-02-14T19:45:01.267Z,21.8
2023-02-14T19:50:01.508Z,21.8
2023-02-14T19:55:01.886Z,21.9
2023-02-14T20:05:01.327Z,21.9
2023-02-14T20:10:01.094Z,21.9
2023-02-14T20:15:03.449Z,21.9
2023-02-14T20:20:02.901Z,21.9
2023-02-14T20:25:02.196Z,21.9
2023-02-14T20:30:02.662Z,21.9
2023-02-14T20:35:01.458Z,21.9
2023-02-14T20:40:01.642Z,21.9
2023-02-14T20:45:01.417Z,21.9
2023-02-14T20:50:02.763Z,21.8
2023-02-14T20:55:01.099Z,21.9
2023-02-14T21:00:03.264Z,21.8
2023-02-14T21:05:03.645Z,21.8
2023-02-14T21:10:01.363Z,21.9
2023-02-14T21:15:01.856Z,21.8
2023-02-14T21:20:01.130Z,21.8
2023-02-14T21:25:00.947Z,21.8
2023-02-14T21:30:03.676Z,21.8
2023-02-14T21:35:01.529Z,21.8
2023-02-14T21:40:01.943Z,21.8
2023-02-14T21:45:01.104Z,21.9
2023-02-14T21:50:01.174Z,21.9
2023-02-14T21:55:01.071Z,21.9
2023-02-14T22:00:04.032Z,21.9
2023-02-14T22:05:02.210Z,21.9
2023-02-14T22:10:01.788Z,21.9
2023-02-14T22:15:01.372Z,21.9
2023-02-14T22:20:01.034Z,21.9
2023-02-14T22:25:01.937Z,21.9
2023-02-14T22:30:01.322Z,22.0
2023-02-14T22:35:01.246Z,21.9
2023-02-14T22:40:02.122Z,22.0
2023-02-14T22:45:01.048Z,21.9
2023-02-14T22:50:01.659Z,22.0
2023-02-14T22:55:01.518Z,22.0
2023-02-14T23:00:01.039Z,22.0
2023-02-14T23:05:01.045Z,22.0
2023-02-14T23:10:03.857Z,22.0
2023-02-14T23:15:01.481Z,22.0
2023-02-14T23:20:01.296Z,22.0
2023-02-14T23:25:01.058Z,22.0
2023-02-14T23:30:01.381Z,22.0
2023-02-14T23:35:01.320Z,22.0
2023-02-14T23:40:01.069Z,22.0
2023-02-14T23:45:01.090Z,22.0
2023-02-14T23:50:01.256Z,22.0
2023-02-14T23:55:01.276Z,22.0
